sensor_id;sensor_type;location;lat;lon;timestamp;P1;durP1;ratioP1;P2;durP2;ratioP2
78895;SDS011;68284;59.124;37.910;2023-04-25T00:00:35;4.88;;;4.22;;
78895;SDS011;68284;59.124;37.910;2023-04-25T00:03:03;5.03;;;3.78;;
78895;SDS011;68284;59.124;37.910;2023-04-25T00:05:38;3.88;;;3.13;;
78895;SDS011;68284;59.124;37.910;2023-04-25T00:08:24;6.45;;;3.40;;
78895;SDS011;68284;59.124;37.910;2023-04-25T00:11:00;5.75;;;3.85;;
78895;SDS011;68284;59.124;37.910;2023-04-25T00:13:26;3.78;;;3.15;;
78895;SDS011;68284;59.124;37.910;2023-04-25T00:15:55;4.05;;;3.13;;
78895;SDS011;68284;59.124;37.910;2023-04-25T00:18:26;8.75;;;4.30;;
78895;SDS011;68284;59.124;37.910;2023-04-25T00:21:02;8.98;;;3.67;;
78895;SDS011;68284;59.124;37.910;2023-04-25T00:23:32;3.08;;;2.78;;
78895;SDS011;68284;59.124;37.910;2023-04-25T00:26:02;5.45;;;3.88;;
78895;SDS011;68284;59.124;37.910;2023-04-25T00:28:29;4.85;;;3.72;;
78895;SDS011;68284;59.124;37.910;2023-04-25T00:31:02;11.27;;;3.40;;
78895;SDS011;68284;59.124;37.910;2023-04-25T00:33:29;4.43;;;3.97;;
78895;SDS011;68284;59.124;37.910;2023-04-25T00:35:56;4.72;;;3.22;;
78895;SDS011;68284;59.124;37.910;2023-04-25T00:38:24;4.25;;;2.92;;
78895;SDS011;68284;59.124;37.910;2023-04-25T00:40:53;8.65;;;4.00;;
78895;SDS011;68284;59.124;37.910;2023-04-25T00:43:25;4.82;;;3.65;;
78895;SDS011;68284;59.124;37.910;2023-04-25T00:45:56;4.55;;;3.63;;
78895;SDS011;68284;59.124;37.910;2023-04-25T00:48:34;6.97;;;3.17;;
78895;SDS011;68284;59.124;37.910;2023-04-25T00:51:04;4.57;;;3.53;;
78895;SDS011;68284;59.124;37.910;2023-04-25T00:53:42;8.32;;;3.75;;
78895;SDS011;68284;59.124;37.910;2023-04-25T00:56:15;5.30;;;4.78;;
78895;SDS011;68284;59.124;37.910;2023-04-25T00:58:43;4.55;;;4.03;;
78895;SDS011;68284;59.124;37.910;2023-04-25T01:03:38;4.90;;;4.43;;
78895;SDS011;68284;59.124;37.910;2023-04-25T01:06:10;4.97;;;3.25;;
78895;SDS011;68284;59.124;37.910;2023-04-25T01:08:41;3.92;;;3.53;;
78895;SDS011;68284;59.124;37.910;2023-04-25T01:11:22;5.18;;;3.63;;
78895;SDS011;68284;59.124;37.910;2023-04-25T01:13:49;4.47;;;4.07;;
78895;SDS011;68284;59.124;37.910;2023-04-25T01:16:24;4.72;;;4.13;;
78895;SDS011;68284;59.124;37.910;2023-04-25T01:18:53;3.95;;;3.55;;
78895;SDS011;68284;59.124;37.910;2023-04-25T01:21:28;5.15;;;3.08;;
78895;SDS011;68284;59.124;37.910;2023-04-25T01:24:05;4.07;;;2.92;;
78895;SDS011;68284;59.124;37.910;2023-04-25T01:26:44;3.35;;;2.70;;
78895;SDS011;68284;59.124;37.910;2023-04-25T01:29:30;5.07;;;3.30;;
78895;SDS011;68284;59.124;37.910;2023-04-25T01:32:34;6.80;;;3.40;;
78895;SDS011;68284;59.124;37.910;2023-04-25T01:35:11;4.18;;;3.78;;
78895;SDS011;68284;59.124;37.910;2023-04-25T01:37:45;4.45;;;2.97;;
78895;SDS011;68284;59.124;37.910;2023-04-25T01:40:18;5.68;;;3.90;;
78895;SDS011;68284;59.124;37.910;2023-04-25T01:45:32;3.83;;;2.80;;
78895;SDS011;68284;59.124;37.910;2023-04-25T01:48:15;4.22;;;2.95;;
78895;SDS011;68284;59.124;37.910;2023-04-25T01:50:45;5.53;;;3.10;;
78895;SDS011;68284;59.124;37.910;2023-04-25T01:53:21;3.10;;;2.60;;
78895;SDS011;68284;59.124;37.910;2023-04-25T01:56:02;3.60;;;2.42;;
78895;SDS011;68284;59.124;37.910;2023-04-25T01:58:51;4.50;;;3.47;;
78895;SDS011;68284;59.124;37.910;2023-04-25T02:01:21;4.72;;;3.40;;
78895;SDS011;68284;59.124;37.910;2023-04-25T02:04:07;4.25;;;3.13;;
78895;SDS011;68284;59.124;37.910;2023-04-25T02:06:45;5.57;;;3.13;;
78895;SDS011;68284;59.124;37.910;2023-04-25T02:09:15;5.70;;;2.78;;
78895;SDS011;68284;59.124;37.910;2023-04-25T02:11:53;3.35;;;3.03;;
78895;SDS011;68284;59.124;37.910;2023-04-25T02:14:36;3.95;;;3.25;;
78895;SDS011;68284;59.124;37.910;2023-04-25T02:17:15;5.55;;;4.45;;
78895;SDS011;68284;59.124;37.910;2023-04-25T02:19:44;4.88;;;4.25;;
78895;SDS011;68284;59.124;37.910;2023-04-25T02:22:19;7.20;;;4.25;;
78895;SDS011;68284;59.124;37.910;2023-04-25T02:24:46;4.72;;;3.22;;
78895;SDS011;68284;59.124;37.910;2023-04-25T02:27:21;3.80;;;3.13;;
78895;SDS011;68284;59.124;37.910;2023-04-25T02:30:01;4.00;;;3.33;;
78895;SDS011;68284;59.124;37.910;2023-04-25T02:32:30;4.90;;;3.70;;
78895;SDS011;68284;59.124;37.910;2023-04-25T02:35:02;5.03;;;3.83;;
78895;SDS011;68284;59.124;37.910;2023-04-25T02:37:33;5.43;;;3.70;;
78895;SDS011;68284;59.124;37.910;2023-04-25T02:40:04;6.57;;;4.20;;
78895;SDS011;68284;59.124;37.910;2023-04-25T02:42:38;6.13;;;3.40;;
78895;SDS011;68284;59.124;37.910;2023-04-25T02:45:06;7.03;;;4.72;;
78895;SDS011;68284;59.124;37.910;2023-04-25T02:47:36;3.97;;;3.10;;
78895;SDS011;68284;59.124;37.910;2023-04-25T02:50:06;4.93;;;4.00;;
78895;SDS011;68284;59.124;37.910;2023-04-25T02:52:51;7.43;;;3.35;;
78895;SDS011;68284;59.124;37.910;2023-04-25T02:55:27;6.40;;;3.75;;
78895;SDS011;68284;59.124;37.910;2023-04-25T02:58:07;8.02;;;3.88;;
78895;SDS011;68284;59.124;37.910;2023-04-25T03:00:44;8.52;;;4.35;;
78895;SDS011;68284;59.124;37.910;2023-04-25T03:03:15;4.80;;;3.25;;
78895;SDS011;68284;59.124;37.910;2023-04-25T03:05:45;5.15;;;4.00;;
78895;SDS011;68284;59.124;37.910;2023-04-25T03:08:17;7.13;;;4.32;;
78895;SDS011;68284;59.124;37.910;2023-04-25T03:10:51;6.75;;;3.58;;
78895;SDS011;68284;59.124;37.910;2023-04-25T03:13:23;7.95;;;3.83;;
78895;SDS011;68284;59.124;37.910;2023-04-25T03:16:02;5.53;;;4.50;;
78895;SDS011;68284;59.124;37.910;2023-04-25T03:18:40;8.50;;;3.80;;
78895;SDS011;68284;59.124;37.910;2023-04-25T03:21:14;7.68;;;4.72;;
78895;SDS011;68284;59.124;37.910;2023-04-25T03:23:53;6.97;;;4.05;;
78895;SDS011;68284;59.124;37.910;2023-04-25T03:26:22;6.47;;;4.10;;
78895;SDS011;68284;59.124;37.910;2023-04-25T03:28:54;9.65;;;4.45;;
78895;SDS011;68284;59.124;37.910;2023-04-25T03:31:24;5.45;;;3.42;;
78895;SDS011;68284;59.124;37.910;2023-04-25T03:34:02;9.18;;;3.80;;
78895;SDS011;68284;59.124;37.910;2023-04-25T03:36:52;8.90;;;4.30;;
78895;SDS011;68284;59.124;37.910;2023-04-25T03:39:27;12.02;;;4.97;;
78895;SDS011;68284;59.124;37.910;2023-04-25T03:41:56;7.53;;;3.95;;
78895;SDS011;68284;59.124;37.910;2023-04-25T03:44:24;13.18;;;5.38;;
78895;SDS011;68284;59.124;37.910;2023-04-25T03:46:53;5.28;;;4.38;;
78895;SDS011;68284;59.124;37.910;2023-04-25T03:49:21;7.05;;;4.00;;
78895;SDS011;68284;59.124;37.910;2023-04-25T03:52:03;13.75;;;4.13;;
78895;SDS011;68284;59.124;37.910;2023-04-25T03:54:42;6.97;;;5.13;;
78895;SDS011;68284;59.124;37.910;2023-04-25T03:57:20;13.75;;;5.30;;
78895;SDS011;68284;59.124;37.910;2023-04-25T03:59:47;5.65;;;4.07;;
78895;SDS011;68284;59.124;37.910;2023-04-25T04:02:17;12.48;;;5.80;;
78895;SDS011;68284;59.124;37.910;2023-04-25T04:04:57;7.82;;;4.60;;
78895;SDS011;68284;59.124;37.910;2023-04-25T04:08:02;5.25;;;4.30;;
78895;SDS011;68284;59.124;37.910;2023-04-25T04:11:02;7.03;;;4.50;;
78895;SDS011;68284;59.124;37.910;2023-04-25T04:13:46;9.25;;;5.00;;
78895;SDS011;68284;59.124;37.910;2023-04-25T04:16:21;5.63;;;3.92;;
78895;SDS011;68284;59.124;37.910;2023-04-25T04:18:54;6.00;;;4.00;;
78895;SDS011;68284;59.124;37.910;2023-04-25T04:22:16;5.68;;;4.22;;
78895;SDS011;68284;59.124;37.910;2023-04-25T04:25:15;7.65;;;4.60;;
78895;SDS011;68284;59.124;37.910;2023-04-25T04:28:08;6.00;;;4.50;;
78895;SDS011;68284;59.124;37.910;2023-04-25T04:30:52;15.25;;;5.53;;
78895;SDS011;68284;59.124;37.910;2023-04-25T04:33:24;7.68;;;3.97;;
78895;SDS011;68284;59.124;37.910;2023-04-25T04:36:08;21.63;;;4.93;;
78895;SDS011;68284;59.124;37.910;2023-04-25T04:38:42;14.02;;;4.65;;
78895;SDS011;68284;59.124;37.910;2023-04-25T04:41:24;5.68;;;3.67;;
78895;SDS011;68284;59.124;37.910;2023-04-25T04:44:35;9.98;;;4.43;;
78895;SDS011;68284;59.124;37.910;2023-04-25T04:47:27;10.40;;;5.22;;
78895;SDS011;68284;59.124;37.910;2023-04-25T04:50:42;15.68;;;5.95;;
78895;SDS011;68284;59.124;37.910;2023-04-25T04:53:28;7.95;;;5.30;;
78895;SDS011;68284;59.124;37.910;2023-04-25T04:56:25;10.52;;;5.13;;
78895;SDS011;68284;59.124;37.910;2023-04-25T04:59:16;7.40;;;4.95;;
78895;SDS011;68284;59.124;37.910;2023-04-25T05:02:02;10.80;;;4.82;;
78895;SDS011;68284;59.124;37.910;2023-04-25T05:05:18;8.98;;;6.78;;
78895;SDS011;68284;59.124;37.910;2023-04-25T05:08:17;15.95;;;5.45;;
78895;SDS011;68284;59.124;37.910;2023-04-25T05:12:02;11.18;;;5.85;;
78895;SDS011;68284;59.124;37.910;2023-04-25T05:14:51;10.95;;;5.50;;
78895;SDS011;68284;59.124;37.910;2023-04-25T05:17:55;5.97;;;4.25;;
78895;SDS011;68284;59.124;37.910;2023-04-25T05:20:44;7.78;;;4.95;;
78895;SDS011;68284;59.124;37.910;2023-04-25T05:23:47;5.93;;;5.07;;
78895;SDS011;68284;59.124;37.910;2023-04-25T05:26:33;9.15;;;4.72;;
78895;SDS011;68284;59.124;37.910;2023-04-25T05:29:32;10.45;;;5.60;;
78895;SDS011;68284;59.124;37.910;2023-04-25T05:32:37;10.35;;;5.00;;
78895;SDS011;68284;59.124;37.910;2023-04-25T05:35:21;8.52;;;5.15;;
78895;SDS011;68284;59.124;37.910;2023-04-25T05:37:51;8.07;;;4.82;;
78895;SDS011;68284;59.124;37.910;2023-04-25T05:40:28;14.60;;;4.57;;
78895;SDS011;68284;59.124;37.910;2023-04-25T05:43:06;8.60;;;5.03;;
78895;SDS011;68284;59.124;37.910;2023-04-25T05:46:00;7.13;;;4.50;;
78895;SDS011;68284;59.124;37.910;2023-04-25T05:52:45;9.90;;;5.40;;
78895;SDS011;68284;59.124;37.910;2023-04-25T05:55:37;8.70;;;3.97;;
78895;SDS011;68284;59.124;37.910;2023-04-25T05:58:35;6.50;;;4.18;;
78895;SDS011;68284;59.124;37.910;2023-04-25T06:01:19;9.52;;;3.85;;
78895;SDS011;68284;59.124;37.910;2023-04-25T06:04:10;10.25;;;4.13;;
78895;SDS011;68284;59.124;37.910;2023-04-25T06:06:42;8.50;;;4.50;;
78895;SDS011;68284;59.124;37.910;2023-04-25T06:09:12;7.57;;;4.95;;
78895;SDS011;68284;59.124;37.910;2023-04-25T06:11:44;9.45;;;4.60;;
78895;SDS011;68284;59.124;37.910;2023-04-25T06:14:14;5.70;;;4.97;;
78895;SDS011;68284;59.124;37.910;2023-04-25T06:16:49;8.82;;;5.07;;
78895;SDS011;68284;59.124;37.910;2023-04-25T06:19:20;8.50;;;5.32;;
78895;SDS011;68284;59.124;37.910;2023-04-25T06:22:00;9.50;;;5.25;;
78895;SDS011;68284;59.124;37.910;2023-04-25T06:24:41;9.30;;;4.32;;
78895;SDS011;68284;59.124;37.910;2023-04-25T06:27:27;11.32;;;4.75;;
78895;SDS011;68284;59.124;37.910;2023-04-25T06:30:09;9.00;;;4.45;;
78895;SDS011;68284;59.124;37.910;2023-04-25T06:32:43;9.27;;;5.50;;
78895;SDS011;68284;59.124;37.910;2023-04-25T06:35:19;10.55;;;5.38;;
78895;SDS011;68284;59.124;37.910;2023-04-25T06:37:56;9.98;;;4.20;;
78895;SDS011;68284;59.124;37.910;2023-04-25T06:40:33;9.85;;;5.57;;
78895;SDS011;68284;59.124;37.910;2023-04-25T06:43:12;9.82;;;4.85;;
78895;SDS011;68284;59.124;37.910;2023-04-25T06:46:22;8.85;;;5.32;;
78895;SDS011;68284;59.124;37.910;2023-04-25T06:48:52;9.45;;;4.45;;
78895;SDS011;68284;59.124;37.910;2023-04-25T06:51:19;7.45;;;4.78;;
78895;SDS011;68284;59.124;37.910;2023-04-25T06:53:51;13.65;;;4.63;;
78895;SDS011;68284;59.124;37.910;2023-04-25T07:00:52;8.60;;;5.10;;
78895;SDS011;68284;59.124;37.910;2023-04-25T07:07:05;13.32;;;4.93;;
78895;SDS011;68284;59.124;37.910;2023-04-25T07:09:51;7.72;;;4.22;;
78895;SDS011;68284;59.124;37.910;2023-04-25T07:13:09;8.35;;;5.35;;
78895;SDS011;68284;59.124;37.910;2023-04-25T07:15:38;7.15;;;5.25;;
78895;SDS011;68284;59.124;37.910;2023-04-25T07:18:16;7.72;;;4.70;;
78895;SDS011;68284;59.124;37.910;2023-04-25T07:20:52;7.03;;;4.32;;
78895;SDS011;68284;59.124;37.910;2023-04-25T07:26:38;11.32;;;5.50;;
78895;SDS011;68284;59.124;37.910;2023-04-25T07:33:59;7.10;;;3.50;;
78895;SDS011;68284;59.124;37.910;2023-04-25T07:36:26;9.32;;;3.83;;
78895;SDS011;68284;59.124;37.910;2023-04-25T07:38:52;6.28;;;4.47;;
78895;SDS011;68284;59.124;37.910;2023-04-25T07:41:19;6.72;;;4.30;;
78895;SDS011;68284;59.124;37.910;2023-04-25T07:43:48;10.65;;;4.18;;
78895;SDS011;68284;59.124;37.910;2023-04-25T07:46:19;14.60;;;4.63;;
78895;SDS011;68284;59.124;37.910;2023-04-25T07:48:56;15.95;;;4.93;;
78895;SDS011;68284;59.124;37.910;2023-04-25T07:51:29;15.10;;;6.22;;
78895;SDS011;68284;59.124;37.910;2023-04-25T07:54:22;8.13;;;5.57;;
78895;SDS011;68284;59.124;37.910;2023-04-25T07:58:04;7.05;;;4.15;;
78895;SDS011;68284;59.124;37.910;2023-04-25T08:04:42;5.35;;;4.68;;
78895;SDS011;68284;59.124;37.910;2023-04-25T08:07:13;7.28;;;4.40;;
78895;SDS011;68284;59.124;37.910;2023-04-25T08:09:48;17.55;;;6.45;;
78895;SDS011;68284;59.124;37.910;2023-04-25T08:12:24;13.70;;;5.22;;
78895;SDS011;68284;59.124;37.910;2023-04-25T08:14:51;9.73;;;4.70;;
78895;SDS011;68284;59.124;37.910;2023-04-25T08:17:19;16.45;;;5.80;;
78895;SDS011;68284;59.124;37.910;2023-04-25T08:19:46;7.82;;;4.18;;
78895;SDS011;68284;59.124;37.910;2023-04-25T08:22:22;12.15;;;4.82;;
78895;SDS011;68284;59.124;37.910;2023-04-25T08:25:10;10.40;;;4.85;;
78895;SDS011;68284;59.124;37.910;2023-04-25T08:27:53;10.05;;;6.43;;
78895;SDS011;68284;59.124;37.910;2023-04-25T08:30:32;32.50;;;7.00;;
78895;SDS011;68284;59.124;37.910;2023-04-25T08:36:53;12.93;;;6.72;;
78895;SDS011;68284;59.124;37.910;2023-04-25T08:40:06;12.43;;;6.90;;
78895;SDS011;68284;59.124;37.910;2023-04-25T08:42:56;14.43;;;9.90;;
78895;SDS011;68284;59.124;37.910;2023-04-25T08:45:24;19.63;;;8.10;;
78895;SDS011;68284;59.124;37.910;2023-04-25T08:47:53;21.70;;;8.88;;
78895;SDS011;68284;59.124;37.910;2023-04-25T08:50:21;31.30;;;8.77;;
78895;SDS011;68284;59.124;37.910;2023-04-25T08:52:50;21.73;;;9.18;;
78895;SDS011;68284;59.124;37.910;2023-04-25T08:55:21;19.75;;;6.25;;
78895;SDS011;68284;59.124;37.910;2023-04-25T08:57:50;15.50;;;6.43;;
78895;SDS011;68284;59.124;37.910;2023-04-25T09:00:18;7.40;;;4.88;;
78895;SDS011;68284;59.124;37.910;2023-04-25T09:02:46;12.52;;;5.70;;
78895;SDS011;68284;59.124;37.910;2023-04-25T09:05:13;13.40;;;4.95;;
78895;SDS011;68284;59.124;37.910;2023-04-25T09:07:40;7.43;;;4.75;;
78895;SDS011;68284;59.124;37.910;2023-04-25T09:10:07;8.63;;;4.47;;
78895;SDS011;68284;59.124;37.910;2023-04-25T09:12:36;11.85;;;5.38;;
78895;SDS011;68284;59.124;37.910;2023-04-25T09:15:08;7.47;;;5.07;;
78895;SDS011;68284;59.124;37.910;2023-04-25T09:17:57;8.88;;;4.97;;
78895;SDS011;68284;59.124;37.910;2023-04-25T09:20:29;7.43;;;4.43;;
78895;SDS011;68284;59.124;37.910;2023-04-25T09:23:00;13.00;;;4.40;;
78895;SDS011;68284;59.124;37.910;2023-04-25T09:25:33;9.82;;;5.35;;
78895;SDS011;68284;59.124;37.910;2023-04-25T09:28:07;8.70;;;3.90;;
78895;SDS011;68284;59.124;37.910;2023-04-25T09:30:36;7.03;;;4.43;;
78895;SDS011;68284;59.124;37.910;2023-04-25T09:33:12;12.93;;;4.50;;
78895;SDS011;68284;59.124;37.910;2023-04-25T09:35:43;6.60;;;4.45;;
78895;SDS011;68284;59.124;37.910;2023-04-25T09:38:40;6.28;;;4.28;;
78895;SDS011;68284;59.124;37.910;2023-04-25T09:41:22;6.60;;;3.97;;
78895;SDS011;68284;59.124;37.910;2023-04-25T09:43:50;7.47;;;4.20;;
78895;SDS011;68284;59.124;37.910;2023-04-25T09:48:54;4.90;;;4.22;;
78895;SDS011;68284;59.124;37.910;2023-04-25T09:51:33;7.65;;;5.18;;
78895;SDS011;68284;59.124;37.910;2023-04-25T09:54:01;7.88;;;5.13;;
78895;SDS011;68284;59.124;37.910;2023-04-25T09:56:41;7.13;;;4.15;;
78895;SDS011;68284;59.124;37.910;2023-04-25T09:59:10;9.18;;;5.18;;
78895;SDS011;68284;59.124;37.910;2023-04-25T10:01:49;6.18;;;3.97;;
78895;SDS011;68284;59.124;37.910;2023-04-25T10:04:27;7.55;;;4.30;;
78895;SDS011;68284;59.124;37.910;2023-04-25T10:07:11;9.18;;;5.00;;
78895;SDS011;68284;59.124;37.910;2023-04-25T10:09:39;9.02;;;4.32;;
78895;SDS011;68284;59.124;37.910;2023-04-25T10:12:09;8.63;;;4.75;;
78895;SDS011;68284;59.124;37.910;2023-04-25T10:14:36;5.85;;;5.15;;
78895;SDS011;68284;59.124;37.910;2023-04-25T10:17:16;10.85;;;5.53;;
78895;SDS011;68284;59.124;37.910;2023-04-25T10:19:44;7.32;;;5.45;;
78895;SDS011;68284;59.124;37.910;2023-04-25T10:24:42;6.95;;;4.38;;
78895;SDS011;68284;59.124;37.910;2023-04-25T10:27:09;10.40;;;4.82;;
78895;SDS011;68284;59.124;37.910;2023-04-25T10:29:37;9.02;;;4.07;;
78895;SDS011;68284;59.124;37.910;2023-04-25T10:32:04;5.97;;;4.80;;
78895;SDS011;68284;59.124;37.910;2023-04-25T10:34:38;8.52;;;4.97;;
78895;SDS011;68284;59.124;37.910;2023-04-25T10:37:08;15.85;;;4.95;;
78895;SDS011;68284;59.124;37.910;2023-04-25T10:39:44;8.55;;;5.18;;
78895;SDS011;68284;59.124;37.910;2023-04-25T10:42:13;7.03;;;5.18;;
78895;SDS011;68284;59.124;37.910;2023-04-25T10:44:41;11.30;;;4.88;;
78895;SDS011;68284;59.124;37.910;2023-04-25T10:47:56;7.85;;;4.30;;
78895;SDS011;68284;59.124;37.910;2023-04-25T10:50:25;6.05;;;4.18;;
78895;SDS011;68284;59.124;37.910;2023-04-25T10:53:20;11.00;;;4.43;;
78895;SDS011;68284;59.124;37.910;2023-04-25T10:56:11;10.32;;;4.65;;
78895;SDS011;68284;59.124;37.910;2023-04-25T10:58:43;9.63;;;4.20;;
78895;SDS011;68284;59.124;37.910;2023-04-25T11:01:09;5.38;;;4.60;;
78895;SDS011;68284;59.124;37.910;2023-04-25T11:03:42;5.18;;;4.45;;
78895;SDS011;68284;59.124;37.910;2023-04-25T11:06:20;37.45;;;5.50;;
78895;SDS011;68284;59.124;37.910;2023-04-25T11:08:49;17.17;;;4.70;;
78895;SDS011;68284;59.124;37.910;2023-04-25T11:11:17;6.20;;;4.50;;
78895;SDS011;68284;59.124;37.910;2023-04-25T11:13:46;13.05;;;5.25;;
78895;SDS011;68284;59.124;37.910;2023-04-25T11:16:14;12.70;;;5.40;;
78895;SDS011;68284;59.124;37.910;2023-04-25T11:18:43;12.75;;;4.75;;
78895;SDS011;68284;59.124;37.910;2023-04-25T11:21:10;6.15;;;3.60;;
78895;SDS011;68284;59.124;37.910;2023-04-25T11:23:37;12.13;;;4.25;;
78895;SDS011;68284;59.124;37.910;2023-04-25T11:26:03;11.35;;;5.00;;
78895;SDS011;68284;59.124;37.910;2023-04-25T11:28:31;12.48;;;5.75;;
78895;SDS011;68284;59.124;37.910;2023-04-25T11:31:00;14.18;;;5.30;;
78895;SDS011;68284;59.124;37.910;2023-04-25T11:33:29;20.05;;;4.85;;
78895;SDS011;68284;59.124;37.910;2023-04-25T11:35:56;28.67;;;5.50;;
78895;SDS011;68284;59.124;37.910;2023-04-25T11:38:22;9.90;;;5.68;;
78895;SDS011;68284;59.124;37.910;2023-04-25T11:40:51;24.95;;;6.25;;
78895;SDS011;68284;59.124;37.910;2023-04-25T11:43:21;8.00;;;4.93;;
78895;SDS011;68284;59.124;37.910;2023-04-25T11:45:49;10.48;;;4.28;;
78895;SDS011;68284;59.124;37.910;2023-04-25T11:48:16;9.50;;;4.32;;
78895;SDS011;68284;59.124;37.910;2023-04-25T11:50:47;10.55;;;4.95;;
78895;SDS011;68284;59.124;37.910;2023-04-25T11:53:13;7.20;;;4.20;;
78895;SDS011;68284;59.124;37.910;2023-04-25T11:55:39;8.20;;;4.20;;
78895;SDS011;68284;59.124;37.910;2023-04-25T11:58:05;7.60;;;4.80;;
78895;SDS011;68284;59.124;37.910;2023-04-25T12:00:32;16.75;;;4.75;;
78895;SDS011;68284;59.124;37.910;2023-04-25T12:03:00;12.57;;;3.90;;
78895;SDS011;68284;59.124;37.910;2023-04-25T12:05:29;13.70;;;4.63;;
78895;SDS011;68284;59.124;37.910;2023-04-25T12:08:09;9.38;;;4.53;;
78895;SDS011;68284;59.124;37.910;2023-04-25T12:10:39;6.35;;;4.30;;
78895;SDS011;68284;59.124;37.910;2023-04-25T12:15:45;10.65;;;3.90;;
78895;SDS011;68284;59.124;37.910;2023-04-25T12:18:22;12.65;;;4.25;;
78895;SDS011;68284;59.124;37.910;2023-04-25T12:20:49;12.45;;;4.18;;
78895;SDS011;68284;59.124;37.910;2023-04-25T12:23:24;4.90;;;3.70;;
78895;SDS011;68284;59.124;37.910;2023-04-25T12:25:51;10.40;;;3.95;;
78895;SDS011;68284;59.124;37.910;2023-04-25T12:28:21;8.48;;;4.22;;
78895;SDS011;68284;59.124;37.910;2023-04-25T12:31:01;9.30;;;4.30;;
78895;SDS011;68284;59.124;37.910;2023-04-25T12:33:36;4.68;;;4.18;;
78895;SDS011;68284;59.124;37.910;2023-04-25T12:36:03;9.30;;;3.90;;
78895;SDS011;68284;59.124;37.910;2023-04-25T12:38:37;7.10;;;3.65;;
78895;SDS011;68284;59.124;37.910;2023-04-25T12:41:05;8.38;;;4.13;;
78895;SDS011;68284;59.124;37.910;2023-04-25T12:43:31;7.82;;;3.65;;
78895;SDS011;68284;59.124;37.910;2023-04-25T12:46:18;17.80;;;4.25;;
78895;SDS011;68284;59.124;37.910;2023-04-25T12:48:44;7.80;;;3.85;;
78895;SDS011;68284;59.124;37.910;2023-04-25T12:51:10;16.05;;;4.32;;
78895;SDS011;68284;59.124;37.910;2023-04-25T12:53:36;11.10;;;4.35;;
78895;SDS011;68284;59.124;37.910;2023-04-25T12:56:04;8.85;;;4.20;;
78895;SDS011;68284;59.124;37.910;2023-04-25T12:58:35;9.05;;;3.63;;
78895;SDS011;68284;59.124;37.910;2023-04-25T13:01:05;5.80;;;4.07;;
78895;SDS011;68284;59.124;37.910;2023-04-25T13:03:31;6.03;;;3.78;;
78895;SDS011;68284;59.124;37.910;2023-04-25T13:05:57;8.30;;;4.05;;
78895;SDS011;68284;59.124;37.910;2023-04-25T13:08:23;18.10;;;4.10;;
78895;SDS011;68284;59.124;37.910;2023-04-25T13:10:50;10.43;;;3.85;;
78895;SDS011;68284;59.124;37.910;2023-04-25T13:13:16;11.45;;;4.28;;
78895;SDS011;68284;59.124;37.910;2023-04-25T13:15:42;5.25;;;4.00;;
78895;SDS011;68284;59.124;37.910;2023-04-25T13:18:09;4.60;;;3.60;;
78895;SDS011;68284;59.124;37.910;2023-04-25T13:20:35;15.27;;;4.70;;
78895;SDS011;68284;59.124;37.910;2023-04-25T13:23:01;7.65;;;3.72;;
78895;SDS011;68284;59.124;37.910;2023-04-25T13:25:27;9.35;;;3.80;;
78895;SDS011;68284;59.124;37.910;2023-04-25T13:27:53;4.78;;;4.00;;
78895;SDS011;68284;59.124;37.910;2023-04-25T13:30:20;4.80;;;3.67;;
78895;SDS011;68284;59.124;37.910;2023-04-25T13:32:46;9.43;;;3.60;;
78895;SDS011;68284;59.124;37.910;2023-04-25T13:35:13;8.27;;;4.10;;
78895;SDS011;68284;59.124;37.910;2023-04-25T13:37:39;11.32;;;3.30;;
78895;SDS011;68284;59.124;37.910;2023-04-25T13:40:06;16.40;;;4.03;;
78895;SDS011;68284;59.124;37.910;2023-04-25T13:42:37;6.25;;;3.85;;
78895;SDS011;68284;59.124;37.910;2023-04-25T13:45:04;11.82;;;4.20;;
78895;SDS011;68284;59.124;37.910;2023-04-25T13:47:32;6.22;;;3.60;;
78895;SDS011;68284;59.124;37.910;2023-04-25T13:49:58;10.05;;;3.40;;
78895;SDS011;68284;59.124;37.910;2023-04-25T13:52:24;5.13;;;3.60;;
78895;SDS011;68284;59.124;37.910;2023-04-25T13:54:51;11.82;;;3.28;;
78895;SDS011;68284;59.124;37.910;2023-04-25T13:57:17;13.70;;;3.35;;
78895;SDS011;68284;59.124;37.910;2023-04-25T13:59:44;15.57;;;4.25;;
78895;SDS011;68284;59.124;37.910;2023-04-25T14:02:13;3.72;;;3.22;;
78895;SDS011;68284;59.124;37.910;2023-04-25T14:04:40;10.60;;;2.95;;
78895;SDS011;68284;59.124;37.910;2023-04-25T14:07:06;11.48;;;3.55;;
78895;SDS011;68284;59.124;37.910;2023-04-25T14:09:33;6.40;;;3.17;;
78895;SDS011;68284;59.124;37.910;2023-04-25T14:11:59;6.90;;;3.58;;
78895;SDS011;68284;59.124;37.910;2023-04-25T14:14:26;5.78;;;3.28;;
78895;SDS011;68284;59.124;37.910;2023-04-25T14:16:52;12.30;;;3.90;;
78895;SDS011;68284;59.124;37.910;2023-04-25T14:19:20;11.25;;;3.72;;
78895;SDS011;68284;59.124;37.910;2023-04-25T14:21:46;10.60;;;3.22;;
78895;SDS011;68284;59.124;37.910;2023-04-25T14:24:13;9.93;;;3.40;;
78895;SDS011;68284;59.124;37.910;2023-04-25T14:26:39;12.15;;;3.58;;
78895;SDS011;68284;59.124;37.910;2023-04-25T14:29:06;4.53;;;3.35;;
78895;SDS011;68284;59.124;37.910;2023-04-25T14:31:34;10.80;;;3.00;;
78895;SDS011;68284;59.124;37.910;2023-04-25T14:34:01;19.98;;;3.28;;
78895;SDS011;68284;59.124;37.910;2023-04-25T14:36:29;11.85;;;3.08;;
78895;SDS011;68284;59.124;37.910;2023-04-25T14:38:56;5.68;;;2.08;;
78895;SDS011;68284;59.124;37.910;2023-04-25T14:41:22;5.90;;;3.50;;
78895;SDS011;68284;59.124;37.910;2023-04-25T14:43:49;7.15;;;3.22;;
78895;SDS011;68284;59.124;37.910;2023-04-25T14:46:15;11.27;;;2.97;;
78895;SDS011;68284;59.124;37.910;2023-04-25T14:48:42;14.18;;;3.45;;
78895;SDS011;68284;59.124;37.910;2023-04-25T14:51:08;7.53;;;3.47;;
78895;SDS011;68284;59.124;37.910;2023-04-25T14:53:37;7.65;;;3.55;;
78895;SDS011;68284;59.124;37.910;2023-04-25T14:56:03;9.70;;;3.65;;
78895;SDS011;68284;59.124;37.910;2023-04-25T14:58:30;19.10;;;3.08;;
78895;SDS011;68284;59.124;37.910;2023-04-25T15:01:01;7.15;;;3.40;;
78895;SDS011;68284;59.124;37.910;2023-04-25T15:03:28;8.90;;;3.08;;
78895;SDS011;68284;59.124;37.910;2023-04-25T15:05:55;12.15;;;3.50;;
78895;SDS011;68284;59.124;37.910;2023-04-25T15:08:21;7.30;;;3.30;;
78895;SDS011;68284;59.124;37.910;2023-04-25T15:10:47;9.70;;;3.45;;
78895;SDS011;68284;59.124;37.910;2023-04-25T15:13:14;5.07;;;2.33;;
78895;SDS011;68284;59.124;37.910;2023-04-25T15:15:40;5.65;;;3.17;;
78895;SDS011;68284;59.124;37.910;2023-04-25T15:18:07;6.50;;;2.78;;
78895;SDS011;68284;59.124;37.910;2023-04-25T15:20:33;9.00;;;2.83;;
78895;SDS011;68284;59.124;37.910;2023-04-25T15:23:00;4.45;;;2.65;;
78895;SDS011;68284;59.124;37.910;2023-04-25T15:25:28;7.00;;;2.78;;
78895;SDS011;68284;59.124;37.910;2023-04-25T15:27:54;6.97;;;2.70;;
78895;SDS011;68284;59.124;37.910;2023-04-25T15:30:21;4.25;;;2.85;;
78895;SDS011;68284;59.124;37.910;2023-04-25T15:32:47;5.72;;;2.38;;
78895;SDS011;68284;59.124;37.910;2023-04-25T15:35:13;4.10;;;2.60;;
78895;SDS011;68284;59.124;37.910;2023-04-25T15:37:40;4.90;;;3.33;;
78895;SDS011;68284;59.124;37.910;2023-04-25T15:40:11;9.02;;;4.15;;
78895;SDS011;68284;59.124;37.910;2023-04-25T15:42:39;4.60;;;2.97;;
78895;SDS011;68284;59.124;37.910;2023-04-25T15:45:12;10.30;;;2.78;;
78895;SDS011;68284;59.124;37.910;2023-04-25T15:47:40;6.85;;;2.97;;
78895;SDS011;68284;59.124;37.910;2023-04-25T15:50:07;4.57;;;2.83;;
78895;SDS011;68284;59.124;37.910;2023-04-25T15:52:35;6.75;;;3.70;;
78895;SDS011;68284;59.124;37.910;2023-04-25T15:55:03;7.32;;;3.38;;